• vieta
  • image
  • image
  • image
mod_vvisit_countermod_vvisit_countermod_vvisit_countermod_vvisit_countermod_vvisit_countermod_vvisit_counter
mod_vvisit_counterŠiandien550
mod_vvisit_counterVakar870
mod_vvisit_counterŠią savaitę4540
mod_vvisit_counterPraėjusią savaitę5210
mod_vvisit_counterŠį mėnesį12276
mod_vvisit_counterPraėjusį mėnesį22413
mod_vvisit_counterViso842917

Mes turime: 26 svečius online
Jūsų IP: 54.82.78.213
 , 
Šiandien: Vas 17, 2018
Oro uostas / Įmonė

Apie įmonę

 

Savivaldybės įmonė Šiaulių oro uostas.

2003 m. lapkričio mėn. Šiaulių miesto savivaldybės tarybos sprendimu įsteigta Savivaldybės įmonė Šiaulių oro uostas, kuriai LR Vyriausybės nutarimu suteikta teisė aptarnauti civilinį susisiekimą kariniame Šiaulių aerodrome.

Įmonė yra ribotos civilinės atsakomybės viešasis juridinis asmuo.

Įmonės pagrindinė veikla – oro uosto eksploatavimas ir oro transporto paslaugos.

Svarbiausi veiklos uždaviniai – teikti viešąsias keleivių ir krovinių vežimo oro transportu paslaugas.

Įmonėje dirba 21 darbuotojas.


Įmonės struktūra:

 

Šiandien

Šeštadienis, 17 Vasaris 2018

Orų prognozė aviacijai

[source: ADDS]
METAR
EYSA 172050Z 32007KT 9999 -SN FEW017 BKN020 OVC023 M04/M04 Q1020 R14L/29//95 R14R/29//95 WHT NOSIG =
TAF
TAF EYSA 172000Z 1721/1806 34010KT 5000 BR SCT006 BKN015 TEMPO 1721/1724 BKN006 TEMPO 1800/1806 3000 SN BKN006 =
SR / SS: 05:44 / 15:39 UTC (EYSA 2018-02-17)

Paieška

Lankytojai

Mes turime 26 svečius online

tic logo lt